Westerly, RI

4:56 AM EDT on September 26, 2016 (GMT -0400)
Masons Island Marina | | Change Station

Elev 30 ft 41.34 °N, 71.96 °W | Updated 17 seconds ago

Clear
Clear
45.7 °F
Feels Like 43 °F
N
4.9
Wind Variable Wind from North
Gusts 6.0 mph

Today
High -- | Low -- °F
--% Chance of Precip.
Yesterday
High -- | Low -- °F
Precip. -- in
Pressure 30.19 in
Visibility 10.0 miles
Clouds Clear
Windchill 43 °F
Dew Point 42 °F
Humidity 88%
Rainfall 0.00 in
Snow Depth Not available.
6:39 AM 6:36 PM
Waning Crescent, 20% visible
METAR KWST 260853Z AUTO 03003KT 10SM CLR 05/02 A3019 RMK AO2 SLP224 T00500022 56007
Pressure 30.19 in
Visibility 10.0 miles
Clouds Clear
Windchill 43 °F
Dew Point 42 °F
Humidity 88%
Rainfall 0.00 in
Snow Depth Not available.
6:39 AM 6:36 PM
Waning Crescent, 20% visible
METAR KWST 260853Z AUTO 03003KT 10SM CLR 05/02 A3019 RMK AO2 SLP224 T00500022 56007

10-Day Weather Forecast

Almanac

Astronomy

Sep. 26, 2016 Rise Set
Actual Time
Civil Twilight
Nautical Twilight
Astronomical Twilight
Moon
Length of Visible Light
Length of Day
Tomorrow will be .
, % of the Moon is Illuminated

Today's Extremes

State Highs State Lows

Community

WunderPhotos

Upload Photos

1,941,853 photos uploaded!

WunderBlog® & News

Nearby

Air Quality

  Air Quality AQ Index Pollutant
Not available.

Snow Depth

Station Depth Elevation

Earthquake Activity

City Distance Mag. Time & Date
Minimum magnitude displayed is 2.5.

Coastal Water Temperatures

Place Temperature

Stations

Nearby Weather Stations

Station Location Temp. Windchill Dew Point Humidity Wind Precip. Elev Updated Type
                   

Watches & Warnings

There are currently no watches in effect.